sensor_id;sensor_type;location;lat;lon;timestamp;P1;durP1;ratioP1;P2;durP2;ratioP2
29960;SDS011;16816;44.444;26.152;2022-08-26T00:01:55;18.23;;;4.35;;
29960;SDS011;16816;44.444;26.152;2022-08-26T00:07:01;15.18;;;3.75;;
29960;SDS011;16816;44.444;26.152;2022-08-26T00:12:07;19.97;;;3.60;;
29960;SDS011;16816;44.444;26.152;2022-08-26T00:17:15;18.80;;;3.92;;
29960;SDS011;16816;44.444;26.152;2022-08-26T00:22:20;15.40;;;4.45;;
29960;SDS011;16816;44.444;26.152;2022-08-26T00:27:25;20.83;;;4.73;;
29960;SDS011;16816;44.444;26.152;2022-08-26T00:32:31;14.68;;;3.60;;
29960;SDS011;16816;44.444;26.152;2022-08-26T00:37:35;15.65;;;3.53;;
29960;SDS011;16816;44.444;26.152;2022-08-26T00:42:40;19.25;;;3.72;;
29960;SDS011;16816;44.444;26.152;2022-08-26T00:47:49;20.00;;;3.60;;
29960;SDS011;16816;44.444;26.152;2022-08-26T00:53:01;16.02;;;3.67;;
29960;SDS011;16816;44.444;26.152;2022-08-26T01:03:11;16.42;;;4.05;;
29960;SDS011;16816;44.444;26.152;2022-08-26T01:08:15;13.27;;;4.15;;
29960;SDS011;16816;44.444;26.152;2022-08-26T01:13:19;26.35;;;4.03;;
29960;SDS011;16816;44.444;26.152;2022-08-26T01:18:26;13.27;;;4.47;;
29960;SDS011;16816;44.444;26.152;2022-08-26T01:23:33;19.33;;;3.50;;
29960;SDS011;16816;44.444;26.152;2022-08-26T01:28:39;16.35;;;3.97;;
29960;SDS011;16816;44.444;26.152;2022-08-26T01:33:46;17.98;;;3.88;;
29960;SDS011;16816;44.444;26.152;2022-08-26T01:38:54;16.73;;;4.03;;
29960;SDS011;16816;44.444;26.152;2022-08-26T01:43:58;20.67;;;3.90;;
29960;SDS011;16816;44.444;26.152;2022-08-26T01:49:03;14.32;;;3.72;;
29960;SDS011;16816;44.444;26.152;2022-08-26T01:54:11;12.18;;;3.20;;
29960;SDS011;16816;44.444;26.152;2022-08-26T01:59:15;15.90;;;3.25;;
29960;SDS011;16816;44.444;26.152;2022-08-26T02:04:21;10.90;;;3.80;;
29960;SDS011;16816;44.444;26.152;2022-08-26T02:09:29;12.82;;;3.58;;
29960;SDS011;16816;44.444;26.152;2022-08-26T02:14:40;12.70;;;3.63;;
29960;SDS011;16816;44.444;26.152;2022-08-26T02:19:46;9.85;;;3.40;;
29960;SDS011;16816;44.444;26.152;2022-08-26T02:24:54;15.80;;;3.85;;
29960;SDS011;16816;44.444;26.152;2022-08-26T02:30:03;18.75;;;3.70;;
29960;SDS011;16816;44.444;26.152;2022-08-26T02:35:12;12.45;;;3.85;;
29960;SDS011;16816;44.444;26.152;2022-08-26T02:40:24;10.68;;;3.58;;
29960;SDS011;16816;44.444;26.152;2022-08-26T02:45:31;13.00;;;3.08;;
29960;SDS011;16816;44.444;26.152;2022-08-26T02:50:36;18.02;;;4.07;;
29960;SDS011;16816;44.444;26.152;2022-08-26T02:55:41;12.82;;;3.47;;
29960;SDS011;16816;44.444;26.152;2022-08-26T03:00:49;11.30;;;3.50;;
29960;SDS011;16816;44.444;26.152;2022-08-26T03:05:55;16.00;;;3.85;;
29960;SDS011;16816;44.444;26.152;2022-08-26T03:11:01;15.82;;;3.50;;
29960;SDS011;16816;44.444;26.152;2022-08-26T03:21:10;11.93;;;3.70;;
29960;SDS011;16816;44.444;26.152;2022-08-26T03:26:17;17.85;;;3.83;;
29960;SDS011;16816;44.444;26.152;2022-08-26T03:31:21;11.57;;;3.85;;
29960;SDS011;16816;44.444;26.152;2022-08-26T03:36:26;15.70;;;3.65;;
29960;SDS011;16816;44.444;26.152;2022-08-26T03:41:31;13.70;;;4.18;;
29960;SDS011;16816;44.444;26.152;2022-08-26T03:46:36;11.35;;;3.72;;
29960;SDS011;16816;44.444;26.152;2022-08-26T03:51:41;11.13;;;3.63;;
29960;SDS011;16816;44.444;26.152;2022-08-26T03:56:47;11.02;;;3.90;;
29960;SDS011;16816;44.444;26.152;2022-08-26T04:01:51;16.23;;;3.83;;
29960;SDS011;16816;44.444;26.152;2022-08-26T04:06:56;11.27;;;3.58;;
29960;SDS011;16816;44.444;26.152;2022-08-26T04:12:02;18.65;;;4.22;;
29960;SDS011;16816;44.444;26.152;2022-08-26T04:17:07;19.70;;;4.25;;
29960;SDS011;16816;44.444;26.152;2022-08-26T04:22:11;18.40;;;4.28;;
29960;SDS011;16816;44.444;26.152;2022-08-26T04:27:16;15.77;;;4.10;;
29960;SDS011;16816;44.444;26.152;2022-08-26T04:32:20;13.15;;;4.30;;
29960;SDS011;16816;44.444;26.152;2022-08-26T04:37:24;11.27;;;3.85;;
29960;SDS011;16816;44.444;26.152;2022-08-26T04:42:30;14.75;;;5.38;;
29960;SDS011;16816;44.444;26.152;2022-08-26T04:47:35;17.13;;;4.68;;
29960;SDS011;16816;44.444;26.152;2022-08-26T04:52:39;19.63;;;5.85;;
29960;SDS011;16816;44.444;26.152;2022-08-26T04:57:45;12.82;;;7.38;;
29960;SDS011;16816;44.444;26.152;2022-08-26T05:02:49;13.63;;;6.60;;
29960;SDS011;16816;44.444;26.152;2022-08-26T05:07:54;13.63;;;5.32;;
29960;SDS011;16816;44.444;26.152;2022-08-26T05:13:00;20.23;;;5.68;;
29960;SDS011;16816;44.444;26.152;2022-08-26T05:18:12;19.08;;;5.18;;
29960;SDS011;16816;44.444;26.152;2022-08-26T05:28:24;14.07;;;6.75;;
29960;SDS011;16816;44.444;26.152;2022-08-26T05:33:29;23.95;;;5.45;;
29960;SDS011;16816;44.444;26.152;2022-08-26T05:38:33;14.32;;;4.57;;
29960;SDS011;16816;44.444;26.152;2022-08-26T05:43:39;10.93;;;4.50;;
29960;SDS011;16816;44.444;26.152;2022-08-26T05:48:44;19.88;;;5.72;;
29960;SDS011;16816;44.444;26.152;2022-08-26T05:53:48;12.70;;;6.75;;
29960;SDS011;16816;44.444;26.152;2022-08-26T05:58:57;15.43;;;5.03;;
29960;SDS011;16816;44.444;26.152;2022-08-26T06:04:02;14.70;;;5.30;;
29960;SDS011;16816;44.444;26.152;2022-08-26T06:09:06;15.05;;;4.97;;
29960;SDS011;16816;44.444;26.152;2022-08-26T06:14:14;21.40;;;6.45;;
29960;SDS011;16816;44.444;26.152;2022-08-26T06:19:19;15.15;;;4.95;;
29960;SDS011;16816;44.444;26.152;2022-08-26T06:24:23;11.45;;;4.63;;
29960;SDS011;16816;44.444;26.152;2022-08-26T06:29:46;12.10;;;4.40;;
29960;SDS011;16816;44.444;26.152;2022-08-26T06:34:50;14.20;;;4.32;;
29960;SDS011;16816;44.444;26.152;2022-08-26T06:39:54;13.57;;;4.82;;
29960;SDS011;16816;44.444;26.152;2022-08-26T06:45:00;19.30;;;6.43;;
29960;SDS011;16816;44.444;26.152;2022-08-26T06:50:06;13.27;;;4.40;;
29960;SDS011;16816;44.444;26.152;2022-08-26T06:55:10;16.30;;;4.50;;
29960;SDS011;16816;44.444;26.152;2022-08-26T07:00:16;13.10;;;4.00;;
29960;SDS011;16816;44.444;26.152;2022-08-26T07:05:21;19.73;;;4.38;;
29960;SDS011;16816;44.444;26.152;2022-08-26T07:10:26;13.73;;;4.77;;
29960;SDS011;16816;44.444;26.152;2022-08-26T07:15:32;21.30;;;4.53;;
29960;SDS011;16816;44.444;26.152;2022-08-26T07:20:37;14.43;;;4.28;;
29960;SDS011;16816;44.444;26.152;2022-08-26T07:25:43;12.15;;;4.50;;
29960;SDS011;16816;44.444;26.152;2022-08-26T07:30:48;17.80;;;4.22;;
29960;SDS011;16816;44.444;26.152;2022-08-26T07:35:54;14.55;;;4.07;;
29960;SDS011;16816;44.444;26.152;2022-08-26T07:40:58;18.88;;;4.07;;
29960;SDS011;16816;44.444;26.152;2022-08-26T07:46:04;15.25;;;4.88;;
29960;SDS011;16816;44.444;26.152;2022-08-26T07:51:13;21.33;;;4.78;;
29960;SDS011;16816;44.444;26.152;2022-08-26T07:56:17;11.30;;;4.53;;
29960;SDS011;16816;44.444;26.152;2022-08-26T08:01:23;12.98;;;4.32;;
29960;SDS011;16816;44.444;26.152;2022-08-26T08:06:29;15.85;;;4.18;;
29960;SDS011;16816;44.444;26.152;2022-08-26T08:11:33;14.77;;;4.32;;
29960;SDS011;16816;44.444;26.152;2022-08-26T08:16:39;10.80;;;3.83;;
29960;SDS011;16816;44.444;26.152;2022-08-26T08:21:48;16.63;;;4.05;;
29960;SDS011;16816;44.444;26.152;2022-08-26T08:26:52;15.68;;;4.70;;
29960;SDS011;16816;44.444;26.152;2022-08-26T08:31:58;29.25;;;5.88;;
29960;SDS011;16816;44.444;26.152;2022-08-26T08:37:03;14.82;;;4.75;;
29960;SDS011;16816;44.444;26.152;2022-08-26T08:47:39;16.37;;;4.30;;
29960;SDS011;16816;44.444;26.152;2022-08-26T08:52:45;17.55;;;3.70;;
29960;SDS011;16816;44.444;26.152;2022-08-26T08:57:56;16.15;;;3.95;;
29960;SDS011;16816;44.444;26.152;2022-08-26T09:03:07;12.93;;;3.47;;
29960;SDS011;16816;44.444;26.152;2022-08-26T09:08:15;14.85;;;4.13;;
29960;SDS011;16816;44.444;26.152;2022-08-26T09:13:21;13.48;;;4.20;;
29960;SDS011;16816;44.444;26.152;2022-08-26T09:23:54;21.33;;;4.60;;
29960;SDS011;16816;44.444;26.152;2022-08-26T09:28:59;16.13;;;4.30;;
29960;SDS011;16816;44.444;26.152;2022-08-26T09:34:07;16.13;;;4.38;;
29960;SDS011;16816;44.444;26.152;2022-08-26T09:39:27;17.55;;;4.20;;
29960;SDS011;16816;44.444;26.152;2022-08-26T09:44:34;18.77;;;5.10;;
29960;SDS011;16816;44.444;26.152;2022-08-26T09:49:57;13.88;;;3.88;;
29960;SDS011;16816;44.444;26.152;2022-08-26T09:55:11;14.02;;;3.65;;
29960;SDS011;16816;44.444;26.152;2022-08-26T10:00:30;11.82;;;4.10;;
29960;SDS011;16816;44.444;26.152;2022-08-26T10:05:41;9.57;;;3.95;;
29960;SDS011;16816;44.444;26.152;2022-08-26T10:10:46;15.98;;;4.55;;
29960;SDS011;16816;44.444;26.152;2022-08-26T10:15:56;13.05;;;4.20;;
29960;SDS011;16816;44.444;26.152;2022-08-26T10:21:09;16.10;;;4.45;;
29960;SDS011;16816;44.444;26.152;2022-08-26T10:26:20;16.50;;;4.60;;
29960;SDS011;16816;44.444;26.152;2022-08-26T10:31:32;13.32;;;4.45;;
29960;SDS011;16816;44.444;26.152;2022-08-26T10:36:44;24.08;;;4.40;;
29960;SDS011;16816;44.444;26.152;2022-08-26T10:42:19;29.83;;;5.80;;
29960;SDS011;16816;44.444;26.152;2022-08-26T10:47:27;28.60;;;4.63;;
29960;SDS011;16816;44.444;26.152;2022-08-26T10:52:41;24.58;;;5.03;;
29960;SDS011;16816;44.444;26.152;2022-08-26T10:57:54;18.10;;;4.90;;
29960;SDS011;16816;44.444;26.152;2022-08-26T11:03:01;20.67;;;4.65;;
29960;SDS011;16816;44.444;26.152;2022-08-26T11:08:27;18.75;;;4.57;;
29960;SDS011;16816;44.444;26.152;2022-08-26T11:19:02;23.13;;;3.85;;
29960;SDS011;16816;44.444;26.152;2022-08-26T11:24:07;26.20;;;4.95;;
29960;SDS011;16816;44.444;26.152;2022-08-26T11:29:12;24.73;;;4.82;;
29960;SDS011;16816;44.444;26.152;2022-08-26T11:34:55;25.08;;;4.30;;
29960;SDS011;16816;44.444;26.152;2022-08-26T11:40:05;22.23;;;4.07;;
29960;SDS011;16816;44.444;26.152;2022-08-26T11:45:16;14.80;;;4.00;;
29960;SDS011;16816;44.444;26.152;2022-08-26T11:50:23;29.25;;;4.95;;
29960;SDS011;16816;44.444;26.152;2022-08-26T11:55:31;22.42;;;4.43;;
29960;SDS011;16816;44.444;26.152;2022-08-26T12:00:37;27.10;;;4.57;;
29960;SDS011;16816;44.444;26.152;2022-08-26T12:05:53;25.13;;;4.40;;
29960;SDS011;16816;44.444;26.152;2022-08-26T12:11:04;28.30;;;4.50;;
29960;SDS011;16816;44.444;26.152;2022-08-26T12:16:10;18.53;;;4.23;;
29960;SDS011;16816;44.444;26.152;2022-08-26T12:21:18;29.50;;;4.80;;
29960;SDS011;16816;44.444;26.152;2022-08-26T12:26:27;26.95;;;4.55;;
29960;SDS011;16816;44.444;26.152;2022-08-26T12:31:33;22.65;;;4.63;;
29960;SDS011;16816;44.444;26.152;2022-08-26T12:36:38;20.25;;;4.45;;
29960;SDS011;16816;44.444;26.152;2022-08-26T12:41:50;19.55;;;4.20;;
29960;SDS011;16816;44.444;26.152;2022-08-26T12:46:59;22.83;;;3.80;;
29960;SDS011;16816;44.444;26.152;2022-08-26T12:52:05;17.77;;;4.22;;
29960;SDS011;16816;44.444;26.152;2022-08-26T12:57:12;18.38;;;3.90;;
29960;SDS011;16816;44.444;26.152;2022-08-26T13:07:37;20.52;;;4.40;;
29960;SDS011;16816;44.444;26.152;2022-08-26T13:12:43;21.25;;;4.97;;
29960;SDS011;16816;44.444;26.152;2022-08-26T13:17:47;28.23;;;5.43;;
29960;SDS011;16816;44.444;26.152;2022-08-26T13:22:51;17.13;;;4.63;;
29960;SDS011;16816;44.444;26.152;2022-08-26T13:28:11;32.88;;;8.60;;
29960;SDS011;16816;44.444;26.152;2022-08-26T13:33:15;23.27;;;4.50;;
29960;SDS011;16816;44.444;26.152;2022-08-26T13:38:21;27.27;;;5.78;;
29960;SDS011;16816;44.444;26.152;2022-08-26T13:43:36;25.58;;;4.88;;
29960;SDS011;16816;44.444;26.152;2022-08-26T13:48:40;32.10;;;5.00;;
29960;SDS011;16816;44.444;26.152;2022-08-26T13:53:45;30.17;;;5.18;;
29960;SDS011;16816;44.444;26.152;2022-08-26T13:58:51;25.38;;;4.57;;
29960;SDS011;16816;44.444;26.152;2022-08-26T14:03:55;27.40;;;4.97;;
29960;SDS011;16816;44.444;26.152;2022-08-26T14:08:59;26.13;;;4.93;;
29960;SDS011;16816;44.444;26.152;2022-08-26T14:14:04;34.50;;;5.82;;
29960;SDS011;16816;44.444;26.152;2022-08-26T14:19:08;30.92;;;4.63;;
29960;SDS011;16816;44.444;26.152;2022-08-26T14:24:13;28.33;;;5.22;;
29960;SDS011;16816;44.444;26.152;2022-08-26T14:29:18;21.70;;;4.90;;
29960;SDS011;16816;44.444;26.152;2022-08-26T14:34:22;28.65;;;4.60;;
29960;SDS011;16816;44.444;26.152;2022-08-26T14:39:27;22.58;;;4.68;;
29960;SDS011;16816;44.444;26.152;2022-08-26T14:44:32;32.15;;;5.25;;
29960;SDS011;16816;44.444;26.152;2022-08-26T14:49:36;24.48;;;4.20;;
29960;SDS011;16816;44.444;26.152;2022-08-26T14:54:40;32.28;;;5.10;;
29960;SDS011;16816;44.444;26.152;2022-08-26T14:59:45;23.92;;;5.50;;
29960;SDS011;16816;44.444;26.152;2022-08-26T15:04:51;23.98;;;5.05;;
29960;SDS011;16816;44.444;26.152;2022-08-26T15:09:55;29.50;;;5.63;;
29960;SDS011;16816;44.444;26.152;2022-08-26T15:15:01;27.83;;;5.63;;
29960;SDS011;16816;44.444;26.152;2022-08-26T15:20:05;23.65;;;5.75;;
29960;SDS011;16816;44.444;26.152;2022-08-26T15:25:11;24.02;;;5.47;;
29960;SDS011;16816;44.444;26.152;2022-08-26T15:30:16;21.43;;;5.43;;
29960;SDS011;16816;44.444;26.152;2022-08-26T15:40:24;34.63;;;6.32;;
29960;SDS011;16816;44.444;26.152;2022-08-26T15:45:30;31.85;;;5.88;;
29960;SDS011;16816;44.444;26.152;2022-08-26T15:50:34;21.08;;;6.43;;
29960;SDS011;16816;44.444;26.152;2022-08-26T15:55:38;27.88;;;6.68;;
29960;SDS011;16816;44.444;26.152;2022-08-26T16:00:44;25.58;;;5.25;;
29960;SDS011;16816;44.444;26.152;2022-08-26T16:05:48;27.63;;;6.55;;
29960;SDS011;16816;44.444;26.152;2022-08-26T16:10:52;26.27;;;6.63;;
29960;SDS011;16816;44.444;26.152;2022-08-26T16:15:59;23.23;;;5.13;;
29960;SDS011;16816;44.444;26.152;2022-08-26T16:21:05;29.02;;;5.70;;
29960;SDS011;16816;44.444;26.152;2022-08-26T16:26:16;24.17;;;5.57;;
29960;SDS011;16816;44.444;26.152;2022-08-26T16:31:23;27.95;;;7.38;;
29960;SDS011;16816;44.444;26.152;2022-08-26T16:36:27;30.70;;;7.60;;
29960;SDS011;16816;44.444;26.152;2022-08-26T16:41:31;21.30;;;6.75;;
29960;SDS011;16816;44.444;26.152;2022-08-26T16:46:38;21.88;;;6.70;;
29960;SDS011;16816;44.444;26.152;2022-08-26T16:51:42;35.40;;;11.23;;
29960;SDS011;16816;44.444;26.152;2022-08-26T16:56:46;31.73;;;5.85;;
29960;SDS011;16816;44.444;26.152;2022-08-26T17:01:51;21.23;;;6.18;;
29960;SDS011;16816;44.444;26.152;2022-08-26T17:06:56;27.70;;;6.28;;
29960;SDS011;16816;44.444;26.152;2022-08-26T17:12:00;27.42;;;6.55;;
29960;SDS011;16816;44.444;26.152;2022-08-26T17:17:05;26.00;;;7.53;;
29960;SDS011;16816;44.444;26.152;2022-08-26T17:22:10;38.80;;;8.38;;
29960;SDS011;16816;44.444;26.152;2022-08-26T17:27:14;35.33;;;7.28;;
29960;SDS011;16816;44.444;26.152;2022-08-26T17:32:19;28.33;;;7.85;;
29960;SDS011;16816;44.444;26.152;2022-08-26T17:37:23;39.80;;;7.47;;
29960;SDS011;16816;44.444;26.152;2022-08-26T17:42:27;24.75;;;7.13;;
29960;SDS011;16816;44.444;26.152;2022-08-26T17:47:34;33.20;;;7.85;;
29960;SDS011;16816;44.444;26.152;2022-08-26T17:52:38;32.83;;;8.25;;
29960;SDS011;16816;44.444;26.152;2022-08-26T17:57:43;42.35;;;9.10;;
29960;SDS011;16816;44.444;26.152;2022-08-26T18:02:56;34.90;;;7.72;;
29960;SDS011;16816;44.444;26.152;2022-08-26T18:08:00;33.63;;;7.30;;
29960;SDS011;16816;44.444;26.152;2022-08-26T18:13:04;33.78;;;8.98;;
29960;SDS011;16816;44.444;26.152;2022-08-26T18:18:10;44.13;;;7.60;;
29960;SDS011;16816;44.444;26.152;2022-08-26T18:23:14;41.08;;;12.45;;
29960;SDS011;16816;44.444;26.152;2022-08-26T18:28:18;45.60;;;7.65;;
29960;SDS011;16816;44.444;26.152;2022-08-26T18:33:24;30.13;;;7.35;;
29960;SDS011;16816;44.444;26.152;2022-08-26T18:38:28;43.70;;;8.63;;
29960;SDS011;16816;44.444;26.152;2022-08-26T18:43:32;42.55;;;8.23;;
29960;SDS011;16816;44.444;26.152;2022-08-26T18:48:38;52.70;;;8.80;;
29960;SDS011;16816;44.444;26.152;2022-08-26T18:53:42;38.97;;;8.02;;
29960;SDS011;16816;44.444;26.152;2022-08-26T18:58:46;46.75;;;8.13;;
29960;SDS011;16816;44.444;26.152;2022-08-26T19:03:52;33.42;;;10.45;;
29960;SDS011;16816;44.444;26.152;2022-08-26T19:08:56;42.15;;;8.93;;
29960;SDS011;16816;44.444;26.152;2022-08-26T19:14:01;38.33;;;9.40;;
29960;SDS011;16816;44.444;26.152;2022-08-26T19:19:07;56.08;;;8.52;;
29960;SDS011;16816;44.444;26.152;2022-08-26T19:24:12;41.50;;;8.13;;
29960;SDS011;16816;44.444;26.152;2022-08-26T19:29:19;50.95;;;8.50;;
29960;SDS011;16816;44.444;26.152;2022-08-26T19:34:27;55.73;;;9.33;;
29960;SDS011;16816;44.444;26.152;2022-08-26T19:39:31;51.55;;;8.70;;
29960;SDS011;16816;44.444;26.152;2022-08-26T19:44:37;39.78;;;8.32;;
29960;SDS011;16816;44.444;26.152;2022-08-26T19:50:00;46.92;;;8.18;;
29960;SDS011;16816;44.444;26.152;2022-08-26T19:55:04;43.13;;;8.35;;
29960;SDS011;16816;44.444;26.152;2022-08-26T20:00:11;45.00;;;8.45;;
29960;SDS011;16816;44.444;26.152;2022-08-26T20:05:19;32.53;;;8.82;;
29960;SDS011;16816;44.444;26.152;2022-08-26T20:10:24;33.83;;;9.25;;
29960;SDS011;16816;44.444;26.152;2022-08-26T20:15:28;36.55;;;7.60;;
29960;SDS011;16816;44.444;26.152;2022-08-26T20:20:34;39.05;;;8.40;;
29960;SDS011;16816;44.444;26.152;2022-08-26T20:25:55;40.47;;;8.05;;
29960;SDS011;16816;44.444;26.152;2022-08-26T20:30:59;36.53;;;8.27;;
29960;SDS011;16816;44.444;26.152;2022-08-26T20:36:06;38.03;;;8.65;;
29960;SDS011;16816;44.444;26.152;2022-08-26T20:41:10;34.05;;;7.80;;
29960;SDS011;16816;44.444;26.152;2022-08-26T20:46:15;38.53;;;9.07;;
29960;SDS011;16816;44.444;26.152;2022-08-26T20:51:25;34.38;;;7.40;;
29960;SDS011;16816;44.444;26.152;2022-08-26T20:56:29;44.50;;;8.50;;
29960;SDS011;16816;44.444;26.152;2022-08-26T21:01:34;41.50;;;8.15;;
29960;SDS011;16816;44.444;26.152;2022-08-26T21:06:45;44.58;;;8.90;;
29960;SDS011;16816;44.444;26.152;2022-08-26T21:11:54;45.05;;;8.70;;
29960;SDS011;16816;44.444;26.152;2022-08-26T21:16:58;37.30;;;7.63;;
29960;SDS011;16816;44.444;26.152;2022-08-26T21:22:03;39.88;;;7.75;;
29960;SDS011;16816;44.444;26.152;2022-08-26T21:27:07;36.28;;;8.40;;
29960;SDS011;16816;44.444;26.152;2022-08-26T21:32:11;44.92;;;8.93;;
29960;SDS011;16816;44.444;26.152;2022-08-26T21:37:18;47.80;;;8.77;;
29960;SDS011;16816;44.444;26.152;2022-08-26T21:42:22;44.70;;;7.90;;
29960;SDS011;16816;44.444;26.152;2022-08-26T21:47:27;43.42;;;8.80;;
29960;SDS011;16816;44.444;26.152;2022-08-26T21:52:35;32.20;;;8.18;;
29960;SDS011;16816;44.444;26.152;2022-08-26T21:57:40;39.97;;;8.32;;
29960;SDS011;16816;44.444;26.152;2022-08-26T22:02:44;34.38;;;7.63;;
29960;SDS011;16816;44.444;26.152;2022-08-26T22:07:50;42.53;;;7.43;;
29960;SDS011;16816;44.444;26.152;2022-08-26T22:12:54;34.20;;;7.43;;
29960;SDS011;16816;44.444;26.152;2022-08-26T22:17:58;30.63;;;6.85;;
29960;SDS011;16816;44.444;26.152;2022-08-26T22:23:04;41.95;;;8.30;;
29960;SDS011;16816;44.444;26.152;2022-08-26T22:28:09;44.67;;;8.30;;
29960;SDS011;16816;44.444;26.152;2022-08-26T22:33:13;36.70;;;7.38;;
29960;SDS011;16816;44.444;26.152;2022-08-26T22:38:19;39.92;;;7.57;;
29960;SDS011;16816;44.444;26.152;2022-08-26T22:43:25;45.75;;;8.35;;
29960;SDS011;16816;44.444;26.152;2022-08-26T22:48:30;32.60;;;7.97;;
29960;SDS011;16816;44.444;26.152;2022-08-26T22:53:36;35.55;;;7.78;;
29960;SDS011;16816;44.444;26.152;2022-08-26T22:58:43;37.58;;;7.70;;
29960;SDS011;16816;44.444;26.152;2022-08-26T23:03:47;40.03;;;8.60;;
29960;SDS011;16816;44.444;26.152;2022-08-26T23:08:52;35.30;;;7.88;;
29960;SDS011;16816;44.444;26.152;2022-08-26T23:13:56;44.60;;;8.43;;
29960;SDS011;16816;44.444;26.152;2022-08-26T23:19:04;32.60;;;7.30;;
29960;SDS011;16816;44.444;26.152;2022-08-26T23:24:09;38.90;;;8.10;;
29960;SDS011;16816;44.444;26.152;2022-08-26T23:34:17;42.15;;;7.57;;
29960;SDS011;16816;44.444;26.152;2022-08-26T23:39:41;38.60;;;8.07;;
29960;SDS011;16816;44.444;26.152;2022-08-26T23:44:45;29.13;;;6.90;;
29960;SDS011;16816;44.444;26.152;2022-08-26T23:49:50;25.75;;;7.10;;
29960;SDS011;16816;44.444;26.152;2022-08-26T23:54:55;27.92;;;7.55;;
